createdAt,value
2023-05-11T00:02:23.631Z,16.60
2023-05-11T00:04:52.812Z,16.60
2023-05-11T00:07:21.449Z,16.60
2023-05-11T00:09:50.019Z,16.50
2023-05-11T00:12:18.616Z,16.40
2023-05-11T00:14:47.199Z,16.40
2023-05-11T00:17:15.786Z,16.30
2023-05-11T00:19:44.376Z,16.30
2023-05-11T00:22:12.946Z,16.20
2023-05-11T00:24:41.548Z,16.20
2023-05-11T00:27:10.123Z,16.20
2023-05-11T00:29:38.807Z,16.10
2023-05-11T00:32:07.412Z,16.00
2023-05-11T00:34:36.517Z,15.90
2023-05-11T00:37:05.314Z,15.80
2023-05-11T00:39:35.543Z,15.80
2023-05-11T00:42:04.252Z,15.70
2023-05-11T00:44:32.874Z,15.70
2023-05-11T00:47:01.590Z,15.60
2023-05-11T00:49:31.262Z,15.50
2023-05-11T00:52:01.824Z,15.50
2023-05-11T00:54:30.963Z,15.50
2023-05-11T00:56:59.555Z,15.50
2023-05-11T00:59:28.724Z,15.40
2023-05-11T01:01:57.741Z,15.40
2023-05-11T01:04:26.622Z,15.40
2023-05-11T01:07:06.858Z,15.40
2023-05-11T01:10:14.312Z,15.40
2023-05-11T01:13:03.822Z,15.40
2023-05-11T01:15:37.160Z,15.40
2023-05-11T01:18:29.329Z,15.40
2023-05-11T01:21:03.188Z,15.40
2023-05-11T01:24:00.025Z,15.40
2023-05-11T01:27:05.182Z,15.40
2023-05-11T01:29:55.028Z,15.40
2023-05-11T01:32:33.271Z,15.30
2023-05-11T01:35:05.512Z,15.30
2023-05-11T01:37:35.664Z,15.30
2023-05-11T01:40:07.369Z,15.30
2023-05-11T01:42:41.475Z,15.30
2023-05-11T01:45:13.631Z,15.40
2023-05-11T01:47:44.484Z,15.40
2023-05-11T01:50:14.414Z,15.40
2023-05-11T01:52:46.012Z,15.50
2023-05-11T01:55:17.828Z,15.50
2023-05-11T01:57:47.566Z,15.50
2023-05-11T02:00:18.512Z,15.50
2023-05-11T02:02:50.099Z,15.50
2023-05-11T02:05:21.510Z,15.60
2023-05-11T02:07:52.537Z,15.60
2023-05-11T02:10:23.656Z,15.60
2023-05-11T02:12:53.840Z,15.60
2023-05-11T02:15:24.771Z,15.60
2023-05-11T02:17:55.023Z,15.60
2023-05-11T02:20:25.993Z,15.60
2023-05-11T02:22:56.525Z,15.60
2023-05-11T02:25:26.474Z,15.60
2023-05-11T02:27:55.265Z,15.60
2023-05-11T02:30:25.242Z,15.60
2023-05-11T02:32:56.472Z,15.50
2023-05-11T02:35:28.555Z,15.50
2023-05-11T02:37:59.868Z,15.50
2023-05-11T02:40:33.892Z,15.40
2023-05-11T02:43:11.418Z,15.40
2023-05-11T02:45:42.026Z,15.40
2023-05-11T02:48:14.039Z,15.40
2023-05-11T02:50:44.072Z,15.40
2023-05-11T02:53:16.063Z,15.30
2023-05-11T02:55:44.727Z,15.30
2023-05-11T02:58:13.662Z,15.30
2023-05-11T03:00:42.371Z,15.30
2023-05-11T03:03:11.410Z,15.30
2023-05-11T03:05:40.196Z,15.40
2023-05-11T03:08:09.033Z,15.30
2023-05-11T03:10:37.676Z,15.30
2023-05-11T03:13:08.305Z,15.30
2023-05-11T03:15:38.820Z,15.30
2023-05-11T03:18:08.478Z,15.30
2023-05-11T03:20:40.096Z,15.30
2023-05-11T03:23:09.227Z,15.30
2023-05-11T03:25:37.981Z,15.30
2023-05-11T03:28:08.351Z,15.30
2023-05-11T03:30:39.474Z,15.30
2023-05-11T03:33:08.067Z,15.30
2023-05-11T03:35:38.525Z,15.40
2023-05-11T03:38:07.849Z,15.40
2023-05-11T03:40:38.256Z,15.40
2023-05-11T03:43:09.060Z,15.40
2023-05-11T03:45:39.681Z,15.40
2023-05-11T03:48:10.885Z,15.30
2023-05-11T03:50:39.711Z,15.30
2023-05-11T03:53:08.533Z,15.30
2023-05-11T03:55:37.971Z,15.30
2023-05-11T03:58:12.420Z,15.20
2023-05-11T04:00:46.470Z,15.20
2023-05-11T04:03:15.789Z,15.20
2023-05-11T04:05:44.464Z,15.20
2023-05-11T04:08:13.297Z,15.20
2023-05-11T04:10:41.973Z,15.30
2023-05-11T04:13:10.580Z,15.30
2023-05-11T04:15:39.161Z,15.30
2023-05-11T04:18:07.792Z,15.30
2023-05-11T04:20:36.453Z,15.40
2023-05-11T04:23:05.018Z,15.40
2023-05-11T04:25:33.616Z,15.40
2023-05-11T04:28:02.199Z,15.40
2023-05-11T04:30:30.799Z,15.50
2023-05-11T04:32:59.483Z,15.50
2023-05-11T04:35:28.090Z,15.50
2023-05-11T04:37:56.661Z,15.50
2023-05-11T04:40:26.715Z,15.60
2023-05-11T04:42:55.915Z,15.60
2023-05-11T04:45:24.548Z,15.60
2023-05-11T04:47:53.348Z,15.60
2023-05-11T04:50:22.140Z,15.70
2023-05-11T04:52:50.847Z,15.70
2023-05-11T04:55:19.511Z,15.70
2023-05-11T04:57:48.403Z,15.70
2023-05-11T05:00:17.636Z,15.70
2023-05-11T05:02:46.593Z,15.70
2023-05-11T05:05:15.734Z,15.80
2023-05-11T05:07:44.335Z,15.80
2023-05-11T05:10:13.177Z,15.90
2023-05-11T05:12:41.799Z,15.90
2023-05-11T05:15:25.006Z,16.00
2023-05-11T05:17:58.711Z,16.10
2023-05-11T05:20:49.917Z,16.20
2023-05-11T05:23:28.756Z,16.30
2023-05-11T05:26:14.475Z,16.40
2023-05-11T05:28:43.977Z,16.40
2023-05-11T05:31:23.958Z,16.50
2023-05-11T05:34:01.119Z,16.50
2023-05-11T05:39:58.885Z,16.50
2023-05-11T05:42:48.119Z,16.60
2023-05-11T05:45:30.186Z,16.50
2023-05-11T05:48:14.800Z,16.50
2023-05-11T05:51:09.163Z,16.50
2023-05-11T05:54:03.892Z,16.50
2023-05-11T05:56:56.825Z,16.50
2023-05-11T06:05:27.249Z,16.50
2023-05-11T06:11:03.677Z,16.70
2023-05-11T06:13:34.860Z,16.70
2023-05-11T06:16:18.772Z,16.80
2023-05-11T06:22:22.636Z,16.90
2023-05-11T06:27:57.963Z,17.20
2023-05-11T06:30:48.963Z,17.30
2023-05-11T06:33:30.252Z,17.40
2023-05-11T06:36:14.062Z,17.60
2023-05-11T06:38:53.260Z,17.70
2023-05-11T06:41:36.040Z,17.80
2023-05-11T06:44:25.505Z,17.90
2023-05-11T06:47:13.853Z,18.10
2023-05-11T06:50:35.738Z,18.20
2023-05-11T06:55:07.470Z,18.30
2023-05-11T07:00:57.837Z,18.40
2023-05-11T07:03:56.153Z,18.40
2023-05-11T07:09:38.393Z,18.60
2023-05-11T07:12:39.444Z,18.90
2023-05-11T07:15:26.320Z,19.30
2023-05-11T07:17:57.283Z,19.50
2023-05-11T07:23:33.023Z,19.60
2023-05-11T07:26:15.214Z,19.50
2023-05-11T07:28:53.467Z,19.50
2023-05-11T07:31:26.599Z,19.50
2023-05-11T07:34:06.979Z,19.40
2023-05-11T07:36:50.508Z,19.30
2023-05-11T07:42:08.754Z,19.10
2023-05-11T07:44:58.285Z,19.00
2023-05-11T07:47:36.922Z,18.90
2023-05-11T07:53:58.395Z,18.70
2023-05-11T07:57:20.887Z,18.60
2023-05-11T08:03:10.648Z,18.30
2023-05-11T08:09:24.851Z,18.20
2023-05-11T08:12:09.310Z,18.20
2023-05-11T08:15:19.450Z,18.20
2023-05-11T08:17:46.333Z,18.20
2023-05-11T08:20:36.213Z,18.30
2023-05-11T08:25:50.818Z,18.40
2023-05-11T08:28:30.105Z,18.50
2023-05-11T08:31:05.995Z,18.50
2023-05-11T08:36:51.451Z,18.70
2023-05-11T08:39:46.617Z,18.80
2023-05-11T08:42:27.632Z,19.00
2023-05-11T09:04:35.476Z,19.60
2023-05-11T09:07:10.204Z,19.40
2023-05-11T09:09:56.023Z,19.40
2023-05-11T09:15:05.920Z,19.30
2023-05-11T09:20:49.403Z,19.30
2023-05-11T09:22:58.189Z,19.30
2023-05-11T09:26:01.315Z,19.20
2023-05-11T09:29:03.368Z,19.20
2023-05-11T09:31:50.128Z,19.10
2023-05-11T09:34:30.258Z,19.00
2023-05-11T09:37:55.354Z,19.20
2023-05-11T09:42:35.414Z,18.90
2023-05-11T10:01:00.710Z,18.70
2023-05-11T10:03:45.074Z,18.70
2023-05-11T10:06:09.980Z,18.70
2023-05-11T10:08:42.954Z,18.70
2023-05-11T10:11:30.500Z,18.70
2023-05-11T10:14:20.088Z,18.70
2023-05-11T11:19:46.960Z,20.60
2023-05-11T11:22:38.649Z,20.70
2023-05-11T11:25:11.280Z,20.70
2023-05-11T11:27:46.015Z,20.70
2023-05-11T11:30:26.337Z,20.70
2023-05-11T11:32:57.464Z,20.70
2023-05-11T11:35:45.936Z,20.70
2023-05-11T11:38:21.544Z,20.80
2023-05-11T11:40:54.232Z,20.90
2023-05-11T11:43:26.067Z,21.00
2023-05-11T11:45:59.742Z,21.20
2023-05-11T11:48:40.588Z,21.30
2023-05-11T11:51:11.058Z,21.60
2023-05-11T11:53:43.853Z,21.80
2023-05-11T11:56:18.218Z,22.00
2023-05-11T11:58:49.864Z,22.20
2023-05-11T12:01:27.558Z,22.30
2023-05-11T12:04:07.983Z,22.30
2023-05-11T12:06:43.214Z,22.30
2023-05-11T12:09:11.871Z,22.30
2023-05-11T12:11:41.013Z,22.30
2023-05-11T12:14:11.490Z,22.20
2023-05-11T12:16:40.085Z,22.10
2023-05-11T12:19:08.689Z,22.00
2023-05-11T12:21:38.048Z,22.00
2023-05-11T12:24:07.094Z,22.00
2023-05-11T12:26:37.117Z,21.90
2023-05-11T12:29:11.164Z,21.90
2023-05-11T12:31:44.877Z,21.90
2023-05-11T12:34:17.957Z,21.90
2023-05-11T12:36:48.037Z,21.80
2023-05-11T12:39:24.612Z,21.90
2023-05-11T12:41:55.513Z,21.80
2023-05-11T12:44:26.407Z,21.80
2023-05-11T12:46:55.451Z,21.80
2023-05-11T12:49:27.213Z,21.70
2023-05-11T12:52:02.495Z,21.70
2023-05-11T12:54:38.195Z,21.70
2023-05-11T12:57:09.459Z,21.70
2023-05-11T12:59:40.131Z,21.70
2023-05-11T13:02:19.579Z,21.70
2023-05-11T13:04:49.065Z,21.70
2023-05-11T13:07:25.795Z,21.70
2023-05-11T13:09:59.312Z,21.70
2023-05-11T13:12:32.003Z,21.70
2023-05-11T13:15:14.343Z,21.70
2023-05-11T13:17:43.996Z,21.60
2023-05-11T13:20:27.512Z,21.50
2023-05-11T13:23:13.764Z,21.50
2023-05-11T13:25:54.602Z,21.50
2023-05-11T13:28:24.710Z,21.40
2023-05-11T13:31:01.858Z,21.50
2023-05-11T13:33:30.868Z,21.50
2023-05-11T13:35:59.460Z,21.50
2023-05-11T13:38:28.043Z,21.50
2023-05-11T13:40:56.606Z,21.60
2023-05-11T13:43:26.290Z,21.70
2023-05-11T13:45:55.042Z,21.70
2023-05-11T13:48:23.615Z,21.70
2023-05-11T13:50:52.236Z,21.80
2023-05-11T13:53:21.163Z,21.80
2023-05-11T13:55:49.751Z,21.80
2023-05-11T13:58:18.435Z,21.90
2023-05-11T14:00:56.623Z,21.90
2023-05-11T14:03:18.063Z,21.80
2023-05-11T14:05:51.327Z,21.80
2023-05-11T14:08:19.959Z,21.70
2023-05-11T14:10:48.567Z,21.70
2023-05-11T14:13:17.273Z,21.60
2023-05-11T14:15:45.859Z,21.60
2023-05-11T14:18:14.731Z,21.50
2023-05-11T14:20:43.459Z,21.50
2023-05-11T14:23:12.060Z,21.40
2023-05-11T14:25:41.254Z,21.40
2023-05-11T14:28:09.850Z,21.30
2023-05-11T14:30:38.432Z,21.30
2023-05-11T14:33:07.340Z,21.30
2023-05-11T14:35:38.428Z,21.30
2023-05-11T14:38:06.069Z,21.30
2023-05-11T14:40:34.669Z,21.30
2023-05-11T14:43:03.355Z,21.30
2023-05-11T14:45:33.211Z,21.30
2023-05-11T14:48:02.171Z,21.30
2023-05-11T14:50:31.853Z,21.30
2023-05-11T14:53:00.518Z,21.30
2023-05-11T14:55:29.301Z,21.30
2023-05-11T14:57:58.105Z,21.30
2023-05-11T15:00:26.934Z,21.30
2023-05-11T15:02:55.935Z,21.30
2023-05-11T15:05:24.466Z,21.30
2023-05-11T15:07:54.430Z,21.30
2023-05-11T15:10:23.114Z,21.30
2023-05-11T15:12:51.705Z,21.20
2023-05-11T15:15:20.482Z,21.20
2023-05-11T15:17:49.303Z,21.20
2023-05-11T15:20:18.499Z,21.20
2023-05-11T15:22:47.079Z,21.10
2023-05-11T15:25:15.853Z,21.10
2023-05-11T15:27:44.596Z,21.10
2023-05-11T15:30:14.967Z,21.00
2023-05-11T15:32:43.583Z,20.90
2023-05-11T15:35:12.133Z,20.90
2023-05-11T15:37:40.760Z,20.80
2023-05-11T15:40:10.224Z,20.70
2023-05-11T15:42:38.828Z,20.60
2023-05-11T15:45:08.631Z,20.50
2023-05-11T15:47:38.029Z,20.40
2023-05-11T15:50:09.137Z,20.30
2023-05-11T15:52:37.914Z,20.20
2023-05-11T15:55:07.371Z,20.10
2023-05-11T15:57:37.636Z,19.90
2023-05-11T16:00:08.602Z,19.80
2023-05-11T16:02:37.384Z,19.70
2023-05-11T16:05:06.885Z,19.70
2023-05-11T16:07:35.573Z,19.60
2023-05-11T16:10:05.118Z,19.60
2023-05-11T16:12:33.765Z,19.50
2023-05-11T16:15:02.380Z,19.50
2023-05-11T16:17:31.439Z,19.40
2023-05-11T16:20:00.363Z,19.40
2023-05-11T16:22:30.952Z,19.30
2023-05-11T16:24:59.668Z,19.30
2023-05-11T16:27:28.291Z,19.20
2023-05-11T16:29:57.744Z,19.20
2023-05-11T16:32:26.949Z,19.10
2023-05-11T16:34:55.524Z,19.00
2023-05-11T16:37:24.194Z,19.00
2023-05-11T16:39:52.885Z,18.90
2023-05-11T16:42:22.663Z,18.90
2023-05-11T16:44:51.680Z,18.80
2023-05-11T16:47:21.855Z,18.80
2023-05-11T16:49:50.605Z,18.70
2023-05-11T16:52:19.166Z,18.70
2023-05-11T16:54:48.076Z,18.70
2023-05-11T16:57:16.672Z,18.60
2023-05-11T16:59:45.247Z,18.60
2023-05-11T17:02:13.973Z,18.50
2023-05-11T17:04:42.512Z,18.40
2023-05-11T17:07:11.584Z,18.30
2023-05-11T17:09:40.490Z,18.30
2023-05-11T17:12:11.857Z,18.20
2023-05-11T17:14:40.521Z,18.10
2023-05-11T17:17:09.195Z,18.10
2023-05-11T17:19:43.165Z,18.10
2023-05-11T17:22:27.111Z,18.10
2023-05-11T17:25:07.383Z,18.10
2023-05-11T17:30:52.108Z,18.10
2023-05-11T17:33:16.858Z,18.10
2023-05-11T17:38:47.796Z,18.10
2023-05-11T17:41:32.957Z,18.10
2023-05-11T17:48:04.077Z,18.10
2023-05-11T17:49:59.657Z,18.10
2023-05-11T17:52:43.448Z,18.10
2023-05-11T17:55:41.868Z,18.10
2023-05-11T18:01:53.582Z,18.10
2023-05-11T18:04:30.342Z,18.10
2023-05-11T18:28:24.444Z,18.10
2023-05-11T18:31:11.565Z,18.10
2023-05-11T18:33:54.143Z,18.10
2023-05-11T18:36:31.557Z,18.10
2023-05-11T18:39:16.743Z,18.10
2023-05-11T18:42:05.732Z,18.10
2023-05-11T18:44:53.771Z,18.20
2023-05-11T18:47:35.074Z,18.10
2023-05-11T18:50:14.201Z,18.20
2023-05-11T18:52:50.627Z,18.10
2023-05-11T19:01:01.961Z,18.10
2023-05-11T19:03:38.193Z,18.10
2023-05-11T19:08:55.737Z,18.00
2023-05-11T19:11:36.937Z,18.00
2023-05-11T19:14:15.020Z,18.00
2023-05-11T19:16:58.446Z,17.90
2023-05-11T19:23:04.616Z,17.90
2023-05-11T19:25:26.679Z,17.80
2023-05-11T19:27:55.736Z,17.80
2023-05-11T19:30:42.689Z,17.80
2023-05-11T19:33:19.050Z,17.80
2023-05-11T19:35:56.569Z,17.80
2023-05-11T19:38:34.633Z,17.80
2023-05-11T19:41:12.237Z,17.70
2023-05-11T19:43:49.530Z,17.70
2023-05-11T19:46:34.506Z,17.70
2023-05-11T19:49:11.455Z,17.70
2023-05-11T19:51:50.865Z,17.60
2023-05-11T19:54:20.387Z,17.60
2023-05-11T19:56:59.288Z,17.60
2023-05-11T19:59:37.876Z,17.60
2023-05-11T20:02:10.581Z,17.60
2023-05-11T20:04:43.451Z,17.60
2023-05-11T20:07:25.372Z,17.60
2023-05-11T20:10:02.981Z,17.60
2023-05-11T20:12:36.517Z,17.60
2023-05-11T20:15:13.228Z,17.60
2023-05-11T20:17:56.933Z,17.50
2023-05-11T20:20:34.697Z,17.60
2023-05-11T20:23:26.309Z,17.50
2023-05-11T20:26:32.809Z,17.50
2023-05-11T20:28:51.859Z,17.50
2023-05-11T20:31:25.248Z,17.50
2023-05-11T20:34:12.885Z,17.40
2023-05-11T20:37:01.398Z,17.40
2023-05-11T20:39:32.801Z,17.40
2023-05-11T20:42:15.418Z,17.40
2023-05-11T20:44:59.284Z,17.40
2023-05-11T20:47:38.851Z,17.40
2023-05-11T20:52:52.297Z,17.40
2023-05-11T20:58:46.047Z,17.40
2023-05-11T21:01:25.536Z,17.50
2023-05-11T21:06:52.520Z,17.50
2023-05-11T21:09:40.524Z,17.50
2023-05-11T21:12:29.394Z,17.50
2023-05-11T21:15:31.329Z,17.40
2023-05-11T21:17:54.595Z,17.40
2023-05-11T21:23:32.317Z,17.50
2023-05-11T21:26:06.489Z,17.40
2023-05-11T21:28:45.278Z,17.40
2023-05-11T21:31:28.461Z,17.40
2023-05-11T21:34:11.107Z,17.40
2023-05-11T21:39:40.046Z,17.30
2023-05-11T21:48:31.088Z,17.20
2023-05-11T21:51:12.089Z,17.10
2023-05-11T22:05:48.088Z,16.90
2023-05-11T22:11:21.632Z,16.80
2023-05-11T22:14:08.302Z,16.80
2023-05-11T22:16:52.051Z,16.80
2023-05-11T22:25:01.046Z,16.70
2023-05-11T22:30:26.383Z,16.60
2023-05-11T22:32:55.641Z,16.60
2023-05-11T22:35:31.771Z,16.60
2023-05-11T22:38:09.116Z,16.60
2023-05-11T22:40:43.746Z,16.60
2023-05-11T22:43:15.420Z,16.60
2023-05-11T22:45:45.894Z,16.60
2023-05-11T22:48:19.681Z,16.60
2023-05-11T22:50:58.225Z,16.60
2023-05-11T22:53:29.830Z,16.60
2023-05-11T22:56:07.625Z,16.60
2023-05-11T22:58:41.382Z,16.60
2023-05-11T23:01:12.531Z,16.60
2023-05-11T23:03:52.887Z,16.50
2023-05-11T23:06:23.821Z,16.60
2023-05-11T23:08:54.435Z,16.60
2023-05-11T23:11:31.821Z,16.50
2023-05-11T23:14:07.363Z,16.50
2023-05-11T23:16:48.190Z,16.60
2023-05-11T23:19:37.798Z,16.60
2023-05-11T23:21:53.818Z,16.60
2023-05-11T23:24:22.477Z,16.60
2023-05-11T23:26:51.091Z,16.60
2023-05-11T23:29:19.949Z,16.60
2023-05-11T23:31:49.026Z,16.60
2023-05-11T23:34:17.724Z,16.60
2023-05-11T23:36:46.951Z,16.60
2023-05-11T23:39:15.812Z,16.60
2023-05-11T23:41:44.604Z,16.60
2023-05-11T23:44:13.200Z,16.60
2023-05-11T23:46:41.839Z,16.60
2023-05-11T23:49:10.544Z,16.60
2023-05-11T23:51:39.142Z,16.70
2023-05-11T23:54:07.740Z,16.70
2023-05-11T23:56:36.326Z,16.70
2023-05-11T23:59:04.938Z,16.70
